KAVP/AVP METAR and TAF weather

Enter ICAO airport designator
Station Type Date Time Source
KAVP METAR 2021/04/13 20:54 UTC NOAA

KAVP 132054Z VRB04KT 10SM CLR 18/00 A3002 RMK AO2 SLP163 T01830000 56009


Station Type Date Time Source
KAVP Decoded METAR 2021/04/13 20:54 UTC NOAA

WILKES-BARRE/SCRANTON INTERNATIONAL , PA, United States (KAVP) 41-20N 75-44W 291M
Apr 13, 2021 - 04:54 PM EDT / 2021.04.13 2054 UTC
Wind: Variable at 5 MPH (4 KT):0
Visibility: 10 mile(s):0
Sky conditions: clear
Temperature: 64.9 F (18.3 C)
Dew Point: 32.0 F (0.0 C)
Relative Humidity: 29%
Pressure (altimeter): 30.02 in. Hg (1016 hPa)
Pressure tendency: 0.03 inches (0.9 hPa) lower than three hours ago
ob: KAVP 132054Z VRB04KT 10SM CLR 18/00 A3002 RMK AO2 SLP163 T01830000 56009
cycle: 21

Station Type Date Time Source
KAVP TAF 2021/04/13 18:34 UTC NOAA

TAF KAVP 131732Z 1318/1418 03004KT P6SM FEW250
FM140000 VRB03KT P6SM FEW250

Example: see airport list